Huvudsida
METAR-TAF:

METAR-TAF

Flygplatser :

Niamey, Niger

latitud: 13-29N, longitud: 002-10E, höjd: 223 m

Aktuellt väderrapport

Denna rapport gjordes för 1 timme och 17 minuter sedan, klockan 20:00 UTC
Vind 4 kt från nordost
Temperatur 25°C
Fuktighet 7%
Tryck 1015 hPa
Sikt 10 km eller mer
Inga moln under 1 500 m eller inga cumulonimbus

METAR: DRRN 142000Z 04004KT CAVOK 25/M13 Q1015 NOSIG

Tid: 22:17 (21:17 UTC)

Väderprognos

Denna rapport gjordes för 4 timmar och 17 minuter sedan, klockan 17:00 UTC
Prognos gäller från 14 kl. 18 UTC till 15 kl. 24 UTC
Vind 8 kt från ost
Sikt 10 km eller mer
Inga moln under 1 500 m eller inga cumulonimbus
Sannolikhet 30%
från 14 kl. 18 UTC till 14 kl. 20 UTC
Sikt: 4000 m
utbrett stoft
Sannolikhet 30%
från 15 kl. 06 UTC till 15 kl. 09 UTC
Sikt: 4000 m
utbrett stoft

TAF: DRRN 141700Z 1418/1524 08008KT CAVOK PROB30 1418/1420 4000 DU PROB30 1506/1509 4000 DU

Aktuella väderrapporter och prognoser från 4000 flygplatser (METAR- och TAF-rapporter).

De tillgängliga stationerna syns som gula och röda prickar på kartan.

För musen över prickarna för att se namnen på stationerna.

Klicka sedan för att få väderrapporter och prognoser.

För att ändra kartan: Klicka på de gröna knapparna med ett svart kors på för att zooma in; den gröna knappen med ett streck på för att zooma ut; eller på de gröna pilarna för angränsande kartor.


METAR-TAF: